sensor_id;sensor_type;location;lat;lon;timestamp;temperature;humidity
29713;DHT22;16623;53.632;10.016;2023-06-10T00:01:46;14.40;99.90
29713;DHT22;16623;53.632;10.016;2023-06-10T00:04:13;14.40;99.90
29713;DHT22;16623;53.632;10.016;2023-06-10T00:06:39;14.30;99.90
29713;DHT22;16623;53.632;10.016;2023-06-10T00:09:05;14.30;99.90
29713;DHT22;16623;53.632;10.016;2023-06-10T00:11:34;14.20;99.90
29713;DHT22;16623;53.632;10.016;2023-06-10T00:14:00;14.10;99.90
29713;DHT22;16623;53.632;10.016;2023-06-10T00:16:25;14.10;99.90
29713;DHT22;16623;53.632;10.016;2023-06-10T00:18:51;14.10;99.90
29713;DHT22;16623;53.632;10.016;2023-06-10T00:21:17;14.00;99.90
29713;DHT22;16623;53.632;10.016;2023-06-10T00:23:43;14.10;99.90
29713;DHT22;16623;53.632;10.016;2023-06-10T00:26:08;14.10;99.90
29713;DHT22;16623;53.632;10.016;2023-06-10T00:28:34;14.00;99.90
29713;DHT22;16623;53.632;10.016;2023-06-10T00:31:00;13.90;99.90
29713;DHT22;16623;53.632;10.016;2023-06-10T00:33:25;13.90;99.90
29713;DHT22;16623;53.632;10.016;2023-06-10T00:35:51;13.90;99.90
29713;DHT22;16623;53.632;10.016;2023-06-10T00:38:17;13.90;99.90
29713;DHT22;16623;53.632;10.016;2023-06-10T00:40:42;13.80;99.90
29713;DHT22;16623;53.632;10.016;2023-06-10T00:43:08;13.80;99.90
29713;DHT22;16623;53.632;10.016;2023-06-10T00:45:36;13.80;99.90
29713;DHT22;16623;53.632;10.016;2023-06-10T00:48:03;13.70;99.90
29713;DHT22;16623;53.632;10.016;2023-06-10T00:50:28;13.70;99.90
29713;DHT22;16623;53.632;10.016;2023-06-10T00:52:54;13.80;99.90
29713;DHT22;16623;53.632;10.016;2023-06-10T00:55:21;13.70;99.90
29713;DHT22;16623;53.632;10.016;2023-06-10T00:57:48;13.70;99.90
29713;DHT22;16623;53.632;10.016;2023-06-10T01:00:15;13.70;99.90
29713;DHT22;16623;53.632;10.016;2023-06-10T01:02:41;13.70;99.90
29713;DHT22;16623;53.632;10.016;2023-06-10T01:05:08;13.70;99.90
29713;DHT22;16623;53.632;10.016;2023-06-10T01:10:43;13.60;99.90
29713;DHT22;16623;53.632;10.016;2023-06-10T01:13:12;13.60;99.90
29713;DHT22;16623;53.632;10.016;2023-06-10T01:15:39;13.60;99.90
29713;DHT22;16623;53.632;10.016;2023-06-10T01:18:08;13.70;99.90
29713;DHT22;16623;53.632;10.016;2023-06-10T01:20:36;13.80;99.90
29713;DHT22;16623;53.632;10.016;2023-06-10T01:23:06;13.80;99.90
29713;DHT22;16623;53.632;10.016;2023-06-10T01:25:32;13.70;99.90
29713;DHT22;16623;53.632;10.016;2023-06-10T01:33:43;13.60;99.90
29713;DHT22;16623;53.632;10.016;2023-06-10T01:36:09;13.50;99.90
29713;DHT22;16623;53.632;10.016;2023-06-10T01:38:40;13.40;99.90
29713;DHT22;16623;53.632;10.016;2023-06-10T01:41:07;13.40;99.90
29713;DHT22;16623;53.632;10.016;2023-06-10T01:43:34;13.30;99.90
29713;DHT22;16623;53.632;10.016;2023-06-10T01:46:00;13.20;99.90
29713;DHT22;16623;53.632;10.016;2023-06-10T01:48:27;13.30;99.90
29713;DHT22;16623;53.632;10.016;2023-06-10T01:50:52;13.20;99.90
29713;DHT22;16623;53.632;10.016;2023-06-10T01:53:19;13.20;99.90
29713;DHT22;16623;53.632;10.016;2023-06-10T01:55:44;13.20;99.90
29713;DHT22;16623;53.632;10.016;2023-06-10T01:58:10;13.20;99.90
29713;DHT22;16623;53.632;10.016;2023-06-10T02:00:37;13.20;99.90
29713;DHT22;16623;53.632;10.016;2023-06-10T02:03:02;13.20;99.90
29713;DHT22;16623;53.632;10.016;2023-06-10T02:05:31;13.20;99.90
29713;DHT22;16623;53.632;10.016;2023-06-10T02:07:57;13.20;99.90
29713;DHT22;16623;53.632;10.016;2023-06-10T02:10:22;13.20;99.90
29713;DHT22;16623;53.632;10.016;2023-06-10T02:12:48;13.20;99.90
29713;DHT22;16623;53.632;10.016;2023-06-10T02:15:13;13.20;99.90
29713;DHT22;16623;53.632;10.016;2023-06-10T02:17:39;13.20;99.90
29713;DHT22;16623;53.632;10.016;2023-06-10T02:20:05;13.10;99.90
29713;DHT22;16623;53.632;10.016;2023-06-10T02:22:33;13.10;99.90
29713;DHT22;16623;53.632;10.016;2023-06-10T02:24:58;13.00;99.90
29713;DHT22;16623;53.632;10.016;2023-06-10T02:27:24;13.10;99.90
29713;DHT22;16623;53.632;10.016;2023-06-10T02:29:50;13.10;99.90
29713;DHT22;16623;53.632;10.016;2023-06-10T02:32:16;13.00;99.90
29713;DHT22;16623;53.632;10.016;2023-06-10T02:34:42;13.00;99.90
29713;DHT22;16623;53.632;10.016;2023-06-10T02:37:08;13.00;99.90
29713;DHT22;16623;53.632;10.016;2023-06-10T02:39:33;13.00;99.90
29713;DHT22;16623;53.632;10.016;2023-06-10T02:42:04;13.00;99.90
29713;DHT22;16623;53.632;10.016;2023-06-10T02:44:30;12.90;99.90
29713;DHT22;16623;53.632;10.016;2023-06-10T02:46:56;12.90;99.90
29713;DHT22;16623;53.632;10.016;2023-06-10T02:49:21;12.90;99.90
29713;DHT22;16623;53.632;10.016;2023-06-10T02:51:47;12.90;99.90
29713;DHT22;16623;53.632;10.016;2023-06-10T02:54:13;12.90;99.90
29713;DHT22;16623;53.632;10.016;2023-06-10T02:56:38;12.90;99.90
29713;DHT22;16623;53.632;10.016;2023-06-10T02:59:07;12.90;99.90
29713;DHT22;16623;53.632;10.016;2023-06-10T03:01:34;12.80;99.90
29713;DHT22;16623;53.632;10.016;2023-06-10T03:04:03;12.80;99.90
29713;DHT22;16623;53.632;10.016;2023-06-10T03:06:28;12.80;99.90
29713;DHT22;16623;53.632;10.016;2023-06-10T03:08:55;12.80;99.90
29713;DHT22;16623;53.632;10.016;2023-06-10T03:11:20;12.80;99.90
29713;DHT22;16623;53.632;10.016;2023-06-10T03:13:46;12.80;99.90
29713;DHT22;16623;53.632;10.016;2023-06-10T03:16:12;12.80;99.90
29713;DHT22;16623;53.632;10.016;2023-06-10T03:18:37;12.80;99.90
29713;DHT22;16623;53.632;10.016;2023-06-10T03:21:03;12.80;99.90
29713;DHT22;16623;53.632;10.016;2023-06-10T03:23:29;13.00;99.90
29713;DHT22;16623;53.632;10.016;2023-06-10T03:25:54;13.00;99.90
29713;DHT22;16623;53.632;10.016;2023-06-10T03:28:20;13.00;99.90
29713;DHT22;16623;53.632;10.016;2023-06-10T03:30:47;13.00;99.90
29713;DHT22;16623;53.632;10.016;2023-06-10T03:33:13;12.90;99.90
29713;DHT22;16623;53.632;10.016;2023-06-10T03:35:39;13.00;99.90
29713;DHT22;16623;53.632;10.016;2023-06-10T03:38:05;12.80;99.90
29713;DHT22;16623;53.632;10.016;2023-06-10T03:40:31;12.90;99.90
29713;DHT22;16623;53.632;10.016;2023-06-10T03:42:57;13.00;99.90
29713;DHT22;16623;53.632;10.016;2023-06-10T03:45:23;13.00;99.90
29713;DHT22;16623;53.632;10.016;2023-06-10T03:47:51;13.00;99.90
29713;DHT22;16623;53.632;10.016;2023-06-10T03:50:17;13.20;99.90
29713;DHT22;16623;53.632;10.016;2023-06-10T03:52:42;13.90;99.90
29713;DHT22;16623;53.632;10.016;2023-06-10T03:55:09;14.50;99.90
29713;DHT22;16623;53.632;10.016;2023-06-10T03:57:36;15.00;99.90
29713;DHT22;16623;53.632;10.016;2023-06-10T04:00:02;15.10;99.90
29713;DHT22;16623;53.632;10.016;2023-06-10T04:02:33;15.20;99.90
29713;DHT22;16623;53.632;10.016;2023-06-10T04:04:59;15.10;99.90
29713;DHT22;16623;53.632;10.016;2023-06-10T04:07:25;14.90;99.90
29713;DHT22;16623;53.632;10.016;2023-06-10T04:09:51;15.00;99.90
29713;DHT22;16623;53.632;10.016;2023-06-10T04:12:16;14.90;99.90
29713;DHT22;16623;53.632;10.016;2023-06-10T04:14:42;14.70;99.90
29713;DHT22;16623;53.632;10.016;2023-06-10T04:17:10;14.50;99.90
29713;DHT22;16623;53.632;10.016;2023-06-10T04:19:36;14.50;99.90
29713;DHT22;16623;53.632;10.016;2023-06-10T04:22:01;14.50;99.90
29713;DHT22;16623;53.632;10.016;2023-06-10T04:24:30;14.40;99.90
29713;DHT22;16623;53.632;10.016;2023-06-10T04:26:56;14.30;99.90
29713;DHT22;16623;53.632;10.016;2023-06-10T04:29:21;14.20;99.90
29713;DHT22;16623;53.632;10.016;2023-06-10T04:31:47;14.10;99.90
29713;DHT22;16623;53.632;10.016;2023-06-10T04:34:14;13.90;99.90
29713;DHT22;16623;53.632;10.016;2023-06-10T04:36:39;13.90;99.90
29713;DHT22;16623;53.632;10.016;2023-06-10T04:39:05;13.90;99.90
29713;DHT22;16623;53.632;10.016;2023-06-10T04:41:31;14.00;99.90
29713;DHT22;16623;53.632;10.016;2023-06-10T04:43:57;14.10;99.90
29713;DHT22;16623;53.632;10.016;2023-06-10T04:46:23;14.10;99.90
29713;DHT22;16623;53.632;10.016;2023-06-10T04:48:49;14.20;99.90
29713;DHT22;16623;53.632;10.016;2023-06-10T04:51:15;14.50;99.90
29713;DHT22;16623;53.632;10.016;2023-06-10T04:53:40;14.70;99.90
29713;DHT22;16623;53.632;10.016;2023-06-10T04:56:07;15.20;99.90
29713;DHT22;16623;53.632;10.016;2023-06-10T04:58:33;15.60;99.90
29713;DHT22;16623;53.632;10.016;2023-06-10T05:00:59;15.70;99.90
29713;DHT22;16623;53.632;10.016;2023-06-10T05:03:25;15.70;99.90
29713;DHT22;16623;53.632;10.016;2023-06-10T05:05:51;15.70;99.90
29713;DHT22;16623;53.632;10.016;2023-06-10T05:08:16;15.70;99.90
29713;DHT22;16623;53.632;10.016;2023-06-10T05:10:42;15.50;99.90
29713;DHT22;16623;53.632;10.016;2023-06-10T05:13:07;15.40;99.90
29713;DHT22;16623;53.632;10.016;2023-06-10T05:15:33;15.40;99.90
29713;DHT22;16623;53.632;10.016;2023-06-10T05:17:59;15.30;99.90
29713;DHT22;16623;53.632;10.016;2023-06-10T05:20:25;15.20;99.90
29713;DHT22;16623;53.632;10.016;2023-06-10T05:22:51;15.20;99.90
29713;DHT22;16623;53.632;10.016;2023-06-10T05:25:16;15.10;99.90
29713;DHT22;16623;53.632;10.016;2023-06-10T05:27:42;15.20;99.90
29713;DHT22;16623;53.632;10.016;2023-06-10T05:30:10;15.20;99.90
29713;DHT22;16623;53.632;10.016;2023-06-10T05:32:36;15.30;99.90
29713;DHT22;16623;53.632;10.016;2023-06-10T05:35:02;15.50;99.90
29713;DHT22;16623;53.632;10.016;2023-06-10T05:37:29;15.40;99.90
29713;DHT22;16623;53.632;10.016;2023-06-10T05:39:56;15.50;99.90
29713;DHT22;16623;53.632;10.016;2023-06-10T05:42:21;15.60;99.90
29713;DHT22;16623;53.632;10.016;2023-06-10T05:44:47;15.60;99.90
29713;DHT22;16623;53.632;10.016;2023-06-10T05:47:12;15.60;99.90
29713;DHT22;16623;53.632;10.016;2023-06-10T05:49:38;15.60;99.90
29713;DHT22;16623;53.632;10.016;2023-06-10T05:52:10;15.70;99.90
29713;DHT22;16623;53.632;10.016;2023-06-10T05:54:35;15.70;99.90
29713;DHT22;16623;53.632;10.016;2023-06-10T05:57:01;15.70;99.90
29713;DHT22;16623;53.632;10.016;2023-06-10T05:59:27;15.70;99.90
29713;DHT22;16623;53.632;10.016;2023-06-10T06:01:52;15.90;99.90
29713;DHT22;16623;53.632;10.016;2023-06-10T06:04:19;16.00;99.90
29713;DHT22;16623;53.632;10.016;2023-06-10T06:06:45;15.90;99.90
29713;DHT22;16623;53.632;10.016;2023-06-10T06:09:10;16.00;99.90
29713;DHT22;16623;53.632;10.016;2023-06-10T06:11:36;16.10;99.90
29713;DHT22;16623;53.632;10.016;2023-06-10T06:14:01;16.20;99.90
29713;DHT22;16623;53.632;10.016;2023-06-10T06:16:27;16.30;99.90
29713;DHT22;16623;53.632;10.016;2023-06-10T06:18:53;16.30;99.90
29713;DHT22;16623;53.632;10.016;2023-06-10T06:21:18;16.40;99.90
29713;DHT22;16623;53.632;10.016;2023-06-10T06:23:44;16.40;99.90
29713;DHT22;16623;53.632;10.016;2023-06-10T06:26:09;16.50;99.90
29713;DHT22;16623;53.632;10.016;2023-06-10T06:28:35;16.50;99.90
29713;DHT22;16623;53.632;10.016;2023-06-10T06:31:01;16.50;99.90
29713;DHT22;16623;53.632;10.016;2023-06-10T06:33:26;16.60;99.90
29713;DHT22;16623;53.632;10.016;2023-06-10T06:35:52;16.70;99.90
29713;DHT22;16623;53.632;10.016;2023-06-10T06:38:18;17.00;99.90
29713;DHT22;16623;53.632;10.016;2023-06-10T06:40:43;17.50;99.90
29713;DHT22;16623;53.632;10.016;2023-06-10T06:43:09;17.90;99.90
29713;DHT22;16623;53.632;10.016;2023-06-10T06:45:37;18.30;99.90
29713;DHT22;16623;53.632;10.016;2023-06-10T06:48:04;18.60;99.90
29713;DHT22;16623;53.632;10.016;2023-06-10T06:50:30;18.30;99.90
29713;DHT22;16623;53.632;10.016;2023-06-10T06:52:57;18.50;99.90
29713;DHT22;16623;53.632;10.016;2023-06-10T06:55:22;18.50;99.90
29713;DHT22;16623;53.632;10.016;2023-06-10T06:57:48;18.50;99.90
29713;DHT22;16623;53.632;10.016;2023-06-10T07:00:14;18.30;99.90
29713;DHT22;16623;53.632;10.016;2023-06-10T07:02:39;18.20;99.90
29713;DHT22;16623;53.632;10.016;2023-06-10T07:05:06;17.90;99.90
29713;DHT22;16623;53.632;10.016;2023-06-10T07:07:32;17.80;99.90
29713;DHT22;16623;53.632;10.016;2023-06-10T07:09:58;17.80;99.90
29713;DHT22;16623;53.632;10.016;2023-06-10T07:12:23;17.70;99.90
29713;DHT22;16623;53.632;10.016;2023-06-10T07:14:52;17.80;99.90
29713;DHT22;16623;53.632;10.016;2023-06-10T07:17:17;17.80;99.90
29713;DHT22;16623;53.632;10.016;2023-06-10T07:19:45;17.90;99.90
29713;DHT22;16623;53.632;10.016;2023-06-10T07:22:11;17.90;99.90
29713;DHT22;16623;53.632;10.016;2023-06-10T07:24:37;17.90;99.90
29713;DHT22;16623;53.632;10.016;2023-06-10T07:27:02;17.90;99.90
29713;DHT22;16623;53.632;10.016;2023-06-10T07:29:28;18.00;99.90
29713;DHT22;16623;53.632;10.016;2023-06-10T07:31:53;18.10;99.90
29713;DHT22;16623;53.632;10.016;2023-06-10T07:34:19;18.00;99.90
29713;DHT22;16623;53.632;10.016;2023-06-10T07:36:44;18.00;99.90
29713;DHT22;16623;53.632;10.016;2023-06-10T07:39:10;18.30;99.90
29713;DHT22;16623;53.632;10.016;2023-06-10T07:41:36;18.50;99.90
29713;DHT22;16623;53.632;10.016;2023-06-10T07:44:07;18.40;99.90
29713;DHT22;16623;53.632;10.016;2023-06-10T07:46:41;18.30;99.90
29713;DHT22;16623;53.632;10.016;2023-06-10T07:49:07;18.20;99.90
29713;DHT22;16623;53.632;10.016;2023-06-10T07:51:33;18.30;99.90
29713;DHT22;16623;53.632;10.016;2023-06-10T07:53:58;18.50;99.90
29713;DHT22;16623;53.632;10.016;2023-06-10T07:56:27;18.60;99.90
29713;DHT22;16623;53.632;10.016;2023-06-10T07:58:54;18.60;99.90
29713;DHT22;16623;53.632;10.016;2023-06-10T08:01:19;18.80;99.90
29713;DHT22;16623;53.632;10.016;2023-06-10T08:03:45;18.90;99.90
29713;DHT22;16623;53.632;10.016;2023-06-10T08:06:15;19.00;99.90
29713;DHT22;16623;53.632;10.016;2023-06-10T08:08:43;19.30;99.90
29713;DHT22;16623;53.632;10.016;2023-06-10T08:11:11;19.20;99.90
29713;DHT22;16623;53.632;10.016;2023-06-10T08:13:36;19.00;99.90
29713;DHT22;16623;53.632;10.016;2023-06-10T08:16:02;18.90;99.90
29713;DHT22;16623;53.632;10.016;2023-06-10T08:18:28;19.00;99.90
29713;DHT22;16623;53.632;10.016;2023-06-10T08:20:57;19.10;99.90
29713;DHT22;16623;53.632;10.016;2023-06-10T08:23:23;19.20;99.90
29713;DHT22;16623;53.632;10.016;2023-06-10T08:25:48;19.50;99.90
29713;DHT22;16623;53.632;10.016;2023-06-10T08:28:14;19.50;99.90
29713;DHT22;16623;53.632;10.016;2023-06-10T08:30:40;19.70;99.90
29713;DHT22;16623;53.632;10.016;2023-06-10T08:33:05;19.80;99.90
29713;DHT22;16623;53.632;10.016;2023-06-10T08:35:34;19.80;99.90
29713;DHT22;16623;53.632;10.016;2023-06-10T08:38:00;19.70;99.90
29713;DHT22;16623;53.632;10.016;2023-06-10T08:40:26;19.60;99.90
29713;DHT22;16623;53.632;10.016;2023-06-10T08:43:21;19.60;99.90
29713;DHT22;16623;53.632;10.016;2023-06-10T08:45:48;19.60;99.90
29713;DHT22;16623;53.632;10.016;2023-06-10T08:48:16;19.60;99.90
29713;DHT22;16623;53.632;10.016;2023-06-10T08:50:42;19.80;99.90
29713;DHT22;16623;53.632;10.016;2023-06-10T08:53:08;19.80;99.90
29713;DHT22;16623;53.632;10.016;2023-06-10T08:55:42;19.90;99.90
29713;DHT22;16623;53.632;10.016;2023-06-10T08:58:07;20.10;99.90
29713;DHT22;16623;53.632;10.016;2023-06-10T09:00:34;20.20;99.90
29713;DHT22;16623;53.632;10.016;2023-06-10T09:03:00;20.30;99.90
29713;DHT22;16623;53.632;10.016;2023-06-10T09:05:37;20.50;99.90
29713;DHT22;16623;53.632;10.016;2023-06-10T09:08:04;20.50;99.90
29713;DHT22;16623;53.632;10.016;2023-06-10T09:10:31;20.50;99.90
29713;DHT22;16623;53.632;10.016;2023-06-10T09:12:57;20.30;99.90
29713;DHT22;16623;53.632;10.016;2023-06-10T09:15:23;20.30;99.90
29713;DHT22;16623;53.632;10.016;2023-06-10T09:17:48;20.30;99.90
29713;DHT22;16623;53.632;10.016;2023-06-10T09:20:17;20.50;99.90
29713;DHT22;16623;53.632;10.016;2023-06-10T09:22:43;20.60;99.90
29713;DHT22;16623;53.632;10.016;2023-06-10T09:25:13;20.60;99.90
29713;DHT22;16623;53.632;10.016;2023-06-10T09:27:50;20.60;99.90
29713;DHT22;16623;53.632;10.016;2023-06-10T09:30:34;20.70;99.90
29713;DHT22;16623;53.632;10.016;2023-06-10T09:33:02;20.80;99.90
29713;DHT22;16623;53.632;10.016;2023-06-10T09:35:29;21.00;99.90
29713;DHT22;16623;53.632;10.016;2023-06-10T09:37:57;21.10;99.90
29713;DHT22;16623;53.632;10.016;2023-06-10T09:40:23;21.10;99.90
29713;DHT22;16623;53.632;10.016;2023-06-10T09:42:59;21.10;99.90
29713;DHT22;16623;53.632;10.016;2023-06-10T09:45:31;21.20;99.90
29713;DHT22;16623;53.632;10.016;2023-06-10T09:47:57;21.20;99.90
29713;DHT22;16623;53.632;10.016;2023-06-10T09:50:23;21.40;99.90
29713;DHT22;16623;53.632;10.016;2023-06-10T09:52:50;21.60;99.90
29713;DHT22;16623;53.632;10.016;2023-06-10T09:55:16;21.60;99.90
29713;DHT22;16623;53.632;10.016;2023-06-10T09:57:43;21.50;99.90
29713;DHT22;16623;53.632;10.016;2023-06-10T10:00:13;21.50;99.90
29713;DHT22;16623;53.632;10.016;2023-06-10T10:02:52;21.60;99.90
29713;DHT22;16623;53.632;10.016;2023-06-10T10:05:20;21.60;99.90
29713;DHT22;16623;53.632;10.016;2023-06-10T10:07:45;21.50;99.90
29713;DHT22;16623;53.632;10.016;2023-06-10T10:10:13;21.50;99.90
29713;DHT22;16623;53.632;10.016;2023-06-10T10:12:40;21.60;99.90
29713;DHT22;16623;53.632;10.016;2023-06-10T10:15:10;21.60;99.90
29713;DHT22;16623;53.632;10.016;2023-06-10T10:17:44;21.70;99.90
29713;DHT22;16623;53.632;10.016;2023-06-10T10:20:13;21.90;99.90
29713;DHT22;16623;53.632;10.016;2023-06-10T10:22:41;21.90;99.90
29713;DHT22;16623;53.632;10.016;2023-06-10T10:25:11;21.90;99.90
29713;DHT22;16623;53.632;10.016;2023-06-10T10:27:44;21.90;99.90
29713;DHT22;16623;53.632;10.016;2023-06-10T10:30:11;22.10;99.90
29713;DHT22;16623;53.632;10.016;2023-06-10T10:33:22;22.10;99.90
29713;DHT22;16623;53.632;10.016;2023-06-10T10:35:51;22.30;99.90
29713;DHT22;16623;53.632;10.016;2023-06-10T10:38:18;22.50;99.90
29713;DHT22;16623;53.632;10.016;2023-06-10T10:40:45;22.40;99.90
29713;DHT22;16623;53.632;10.016;2023-06-10T10:43:12;22.60;99.90
29713;DHT22;16623;53.632;10.016;2023-06-10T10:45:38;22.50;99.90
29713;DHT22;16623;53.632;10.016;2023-06-10T10:48:32;22.40;99.90
29713;DHT22;16623;53.632;10.016;2023-06-10T10:51:06;22.50;99.90
29713;DHT22;16623;53.632;10.016;2023-06-10T10:53:31;22.50;99.90
29713;DHT22;16623;53.632;10.016;2023-06-10T10:56:16;22.50;99.90
29713;DHT22;16623;53.632;10.016;2023-06-10T10:59:06;22.40;99.90
29713;DHT22;16623;53.632;10.016;2023-06-10T11:01:42;22.30;99.90
29713;DHT22;16623;53.632;10.016;2023-06-10T11:04:11;22.30;99.90
29713;DHT22;16623;53.632;10.016;2023-06-10T11:06:37;22.50;99.90
29713;DHT22;16623;53.632;10.016;2023-06-10T11:09:26;22.60;99.90
29713;DHT22;16623;53.632;10.016;2023-06-10T11:11:58;22.70;99.90
29713;DHT22;16623;53.632;10.016;2023-06-10T11:14:28;22.80;99.90
29713;DHT22;16623;53.632;10.016;2023-06-10T11:16:57;22.70;99.90
29713;DHT22;16623;53.632;10.016;2023-06-10T11:19:36;22.80;99.90
29713;DHT22;16623;53.632;10.016;2023-06-10T11:22:08;22.80;99.90
29713;DHT22;16623;53.632;10.016;2023-06-10T11:24:40;22.80;99.90
29713;DHT22;16623;53.632;10.016;2023-06-10T11:27:26;22.70;99.90
29713;DHT22;16623;53.632;10.016;2023-06-10T11:32:37;23.00;99.90
29713;DHT22;16623;53.632;10.016;2023-06-10T11:35:07;23.10;99.90
29713;DHT22;16623;53.632;10.016;2023-06-10T11:37:32;23.10;99.90
29713;DHT22;16623;53.632;10.016;2023-06-10T11:39:58;23.20;99.90
29713;DHT22;16623;53.632;10.016;2023-06-10T11:42:25;23.20;99.90
29713;DHT22;16623;53.632;10.016;2023-06-10T11:44:52;23.20;99.90
29713;DHT22;16623;53.632;10.016;2023-06-10T11:47:19;23.30;99.90
29713;DHT22;16623;53.632;10.016;2023-06-10T11:49:46;23.40;99.90
29713;DHT22;16623;53.632;10.016;2023-06-10T11:54:42;23.70;99.90
29713;DHT22;16623;53.632;10.016;2023-06-10T11:57:07;23.60;99.90
29713;DHT22;16623;53.632;10.016;2023-06-10T11:59:33;23.60;99.90
29713;DHT22;16623;53.632;10.016;2023-06-10T12:01:59;23.70;99.90
29713;DHT22;16623;53.632;10.016;2023-06-10T12:04:25;23.80;99.90
29713;DHT22;16623;53.632;10.016;2023-06-10T12:06:53;23.80;99.90
29713;DHT22;16623;53.632;10.016;2023-06-10T12:09:29;23.80;99.90
29713;DHT22;16623;53.632;10.016;2023-06-10T12:12:18;23.80;99.90
29713;DHT22;16623;53.632;10.016;2023-06-10T12:14:53;24.00;99.90
29713;DHT22;16623;53.632;10.016;2023-06-10T12:17:21;24.00;99.90
29713;DHT22;16623;53.632;10.016;2023-06-10T12:19:47;24.10;99.90
29713;DHT22;16623;53.632;10.016;2023-06-10T12:22:13;24.10;99.90
29713;DHT22;16623;53.632;10.016;2023-06-10T12:24:59;24.10;99.90
29713;DHT22;16623;53.632;10.016;2023-06-10T12:27:31;24.10;99.90
29713;DHT22;16623;53.632;10.016;2023-06-10T12:29:58;24.10;99.90
29713;DHT22;16623;53.632;10.016;2023-06-10T12:32:43;24.10;99.90
29713;DHT22;16623;53.632;10.016;2023-06-10T12:35:11;24.30;99.90
29713;DHT22;16623;53.632;10.016;2023-06-10T12:37:40;24.40;99.90
29713;DHT22;16623;53.632;10.016;2023-06-10T12:40:07;24.50;99.90
29713;DHT22;16623;53.632;10.016;2023-06-10T12:42:35;24.60;99.90
29713;DHT22;16623;53.632;10.016;2023-06-10T12:45:02;24.50;99.90
29713;DHT22;16623;53.632;10.016;2023-06-10T12:47:36;24.60;99.90
29713;DHT22;16623;53.632;10.016;2023-06-10T12:50:03;24.80;99.90
29713;DHT22;16623;53.632;10.016;2023-06-10T12:52:30;24.90;99.90
29713;DHT22;16623;53.632;10.016;2023-06-10T12:54:55;25.10;99.90
29713;DHT22;16623;53.632;10.016;2023-06-10T12:57:26;25.10;99.90
29713;DHT22;16623;53.632;10.016;2023-06-10T12:59:52;25.20;99.90
29713;DHT22;16623;53.632;10.016;2023-06-10T13:02:21;25.30;99.90
29713;DHT22;16623;53.632;10.016;2023-06-10T13:04:49;25.40;99.90
29713;DHT22;16623;53.632;10.016;2023-06-10T13:07:15;25.60;99.90
29713;DHT22;16623;53.632;10.016;2023-06-10T13:09:42;25.60;99.90
29713;DHT22;16623;53.632;10.016;2023-06-10T13:12:08;25.30;99.90
29713;DHT22;16623;53.632;10.016;2023-06-10T13:14:42;25.30;99.90
29713;DHT22;16623;53.632;10.016;2023-06-10T13:17:08;25.40;99.90
29713;DHT22;16623;53.632;10.016;2023-06-10T13:19:33;25.30;99.90
29713;DHT22;16623;53.632;10.016;2023-06-10T13:21:59;25.30;99.90
29713;DHT22;16623;53.632;10.016;2023-06-10T13:24:25;25.20;99.90
29713;DHT22;16623;53.632;10.016;2023-06-10T13:26:51;25.20;99.90
29713;DHT22;16623;53.632;10.016;2023-06-10T13:29:17;25.10;99.90
29713;DHT22;16623;53.632;10.016;2023-06-10T13:31:42;25.20;99.90
29713;DHT22;16623;53.632;10.016;2023-06-10T13:34:08;25.10;99.90
29713;DHT22;16623;53.632;10.016;2023-06-10T13:36:33;25.10;99.90
29713;DHT22;16623;53.632;10.016;2023-06-10T13:39:37;25.00;99.90
29713;DHT22;16623;53.632;10.016;2023-06-10T13:42:03;25.00;99.90
29713;DHT22;16623;53.632;10.016;2023-06-10T13:44:28;24.80;99.90
29713;DHT22;16623;53.632;10.016;2023-06-10T13:46:56;24.80;99.90
29713;DHT22;16623;53.632;10.016;2023-06-10T13:49:21;25.00;99.90
29713;DHT22;16623;53.632;10.016;2023-06-10T13:51:48;25.00;99.90
29713;DHT22;16623;53.632;10.016;2023-06-10T13:54:13;25.00;99.90
29713;DHT22;16623;53.632;10.016;2023-06-10T13:56:40;25.00;99.90
29713;DHT22;16623;53.632;10.016;2023-06-10T13:59:06;25.00;99.90
29713;DHT22;16623;53.632;10.016;2023-06-10T14:01:31;24.70;99.90
29713;DHT22;16623;53.632;10.016;2023-06-10T14:03:57;24.60;99.90
29713;DHT22;16623;53.632;10.016;2023-06-10T14:06:23;24.50;99.90
29713;DHT22;16623;53.632;10.016;2023-06-10T14:08:48;24.60;99.90
29713;DHT22;16623;53.632;10.016;2023-06-10T14:11:13;24.80;99.90
29713;DHT22;16623;53.632;10.016;2023-06-10T14:13:40;24.70;99.90
29713;DHT22;16623;53.632;10.016;2023-06-10T14:16:06;24.50;99.90
29713;DHT22;16623;53.632;10.016;2023-06-10T14:18:31;24.50;99.90
29713;DHT22;16623;53.632;10.016;2023-06-10T14:20:57;24.60;99.90
29713;DHT22;16623;53.632;10.016;2023-06-10T14:23:22;24.70;99.90
29713;DHT22;16623;53.632;10.016;2023-06-10T14:25:49;24.70;99.90
29713;DHT22;16623;53.632;10.016;2023-06-10T14:28:15;24.80;99.90
29713;DHT22;16623;53.632;10.016;2023-06-10T14:30:40;24.70;99.90
29713;DHT22;16623;53.632;10.016;2023-06-10T14:33:06;24.50;99.90
29713;DHT22;16623;53.632;10.016;2023-06-10T14:35:31;24.50;99.90
29713;DHT22;16623;53.632;10.016;2023-06-10T14:37:57;24.60;99.90
29713;DHT22;16623;53.632;10.016;2023-06-10T14:42:50;24.80;99.90
29713;DHT22;16623;53.632;10.016;2023-06-10T14:45:15;24.90;99.90
29713;DHT22;16623;53.632;10.016;2023-06-10T14:47:41;23.80;99.90
29713;DHT22;16623;53.632;10.016;2023-06-10T14:50:07;25.00;99.90
29713;DHT22;16623;53.632;10.016;2023-06-10T14:52:37;24.90;99.90
29713;DHT22;16623;53.632;10.016;2023-06-10T14:55:06;24.90;99.90
29713;DHT22;16623;53.632;10.016;2023-06-10T14:57:32;24.90;99.90
29713;DHT22;16623;53.632;10.016;2023-06-10T14:59:57;24.70;99.90
29713;DHT22;16623;53.632;10.016;2023-06-10T15:02:23;24.70;99.90
29713;DHT22;16623;53.632;10.016;2023-06-10T15:04:52;24.60;99.90
29713;DHT22;16623;53.632;10.016;2023-06-10T15:07:18;24.60;99.90
29713;DHT22;16623;53.632;10.016;2023-06-10T15:09:44;24.70;99.90
29713;DHT22;16623;53.632;10.016;2023-06-10T15:12:10;24.90;99.90
29713;DHT22;16623;53.632;10.016;2023-06-10T15:14:36;24.90;99.90
29713;DHT22;16623;53.632;10.016;2023-06-10T15:17:01;24.80;99.90
29713;DHT22;16623;53.632;10.016;2023-06-10T15:19:27;24.60;99.90
29713;DHT22;16623;53.632;10.016;2023-06-10T15:21:53;24.30;99.90
29713;DHT22;16623;53.632;10.016;2023-06-10T15:24:19;24.20;99.90
29713;DHT22;16623;53.632;10.016;2023-06-10T15:26:44;24.20;99.90
29713;DHT22;16623;53.632;10.016;2023-06-10T15:29:10;24.10;99.90
29713;DHT22;16623;53.632;10.016;2023-06-10T15:31:36;24.10;99.90
29713;DHT22;16623;53.632;10.016;2023-06-10T15:34:02;24.20;99.90